sensor_id;sensor_type;location;lat;lon;timestamp;pressure;altitude;pressure_sealevel;temperature;humidity
54512;BME280;40419;47.438;19.026;2023-05-03T00:02:07;100121.34;;;13.61;100.00
54512;BME280;40419;47.438;19.026;2023-05-03T00:04:35;100132.34;;;13.35;100.00
54512;BME280;40419;47.438;19.026;2023-05-03T00:07:05;100136.28;;;13.32;100.00
54512;BME280;40419;47.438;19.026;2023-05-03T00:09:33;100137.34;;;13.18;100.00
54512;BME280;40419;47.438;19.026;2023-05-03T00:12:04;100132.53;;;13.40;100.00
54512;BME280;40419;47.438;19.026;2023-05-03T00:14:34;100115.25;;;13.66;100.00
54512;BME280;40419;47.438;19.026;2023-05-03T00:16:59;100113.81;;;13.57;100.00
54512;BME280;40419;47.438;19.026;2023-05-03T00:19:25;100113.66;;;13.45;100.00
54512;BME280;40419;47.438;19.026;2023-05-03T00:21:57;100112.22;;;13.42;100.00
54512;BME280;40419;47.438;19.026;2023-05-03T00:24:26;100122.28;;;13.35;100.00
54512;BME280;40419;47.438;19.026;2023-05-03T00:26:56;100118.09;;;13.39;100.00
54512;BME280;40419;47.438;19.026;2023-05-03T00:29:22;100121.16;;;13.50;100.00
54512;BME280;40419;47.438;19.026;2023-05-03T00:31:50;100119.56;;;13.35;100.00
54512;BME280;40419;47.438;19.026;2023-05-03T00:34:15;100126.44;;;13.44;100.00
54512;BME280;40419;47.438;19.026;2023-05-03T00:36:41;100116.22;;;13.33;100.00
54512;BME280;40419;47.438;19.026;2023-05-03T00:39:06;100122.06;;;13.37;100.00
54512;BME280;40419;47.438;19.026;2023-05-03T00:41:34;100122.06;;;13.37;100.00
54512;BME280;40419;47.438;19.026;2023-05-03T00:44:02;100118.28;;;13.31;100.00
54512;BME280;40419;47.438;19.026;2023-05-03T00:46:30;100121.44;;;13.41;100.00
54512;BME280;40419;47.438;19.026;2023-05-03T00:48:56;100131.72;;;13.26;100.00
54512;BME280;40419;47.438;19.026;2023-05-03T00:51:26;100127.09;;;13.26;100.00
54512;BME280;40419;47.438;19.026;2023-05-03T00:53:57;100138.00;;;13.13;100.00
54512;BME280;40419;47.438;19.026;2023-05-03T00:56:27;100131.06;;;13.30;100.00
54512;BME280;40419;47.438;19.026;2023-05-03T00:58:56;100141.72;;;13.39;100.00
54512;BME280;40419;47.438;19.026;2023-05-03T01:01:24;100145.09;;;13.41;100.00
54512;BME280;40419;47.438;19.026;2023-05-03T01:03:50;100140.03;;;13.44;100.00
54512;BME280;40419;47.438;19.026;2023-05-03T01:11:44;100138.63;;;13.22;100.00
54512;BME280;40419;47.438;19.026;2023-05-03T01:16:54;100148.63;;;13.41;100.00
54512;BME280;40419;47.438;19.026;2023-05-03T01:19:31;100147.38;;;13.30;100.00
54512;BME280;40419;47.438;19.026;2023-05-03T01:27:32;100154.09;;;13.35;100.00
54512;BME280;40419;47.438;19.026;2023-05-03T01:30:03;100140.47;;;13.28;100.00
54512;BME280;40419;47.438;19.026;2023-05-03T01:35:40;100149.28;;;13.23;100.00
54512;BME280;40419;47.438;19.026;2023-05-03T01:38:08;100154.56;;;13.05;100.00
54512;BME280;40419;47.438;19.026;2023-05-03T01:40:42;100141.75;;;13.19;100.00
54512;BME280;40419;47.438;19.026;2023-05-03T01:43:12;100145.09;;;13.21;100.00
54512;BME280;40419;47.438;19.026;2023-05-03T01:45:40;100141.56;;;13.14;100.00
54512;BME280;40419;47.438;19.026;2023-05-03T01:48:14;100142.38;;;13.21;100.00
54512;BME280;40419;47.438;19.026;2023-05-03T01:50:47;100140.50;;;13.15;100.00
54512;BME280;40419;47.438;19.026;2023-05-03T01:53:15;100136.13;;;13.07;100.00
54512;BME280;40419;47.438;19.026;2023-05-03T01:55:46;100141.38;;;13.02;100.00
54512;BME280;40419;47.438;19.026;2023-05-03T01:58:12;100138.66;;;13.02;100.00
54512;BME280;40419;47.438;19.026;2023-05-03T02:00:40;100134.06;;;13.09;100.00
54512;BME280;40419;47.438;19.026;2023-05-03T02:03:10;100140.53;;;13.08;100.00
54512;BME280;40419;47.438;19.026;2023-05-03T02:05:40;100128.78;;;13.21;100.00
54512;BME280;40419;47.438;19.026;2023-05-03T02:08:06;100131.09;;;13.17;100.00
54512;BME280;40419;47.438;19.026;2023-05-03T02:10:33;100130.91;;;13.12;100.00
54512;BME280;40419;47.438;19.026;2023-05-03T02:13:00;100120.91;;;13.06;100.00
54512;BME280;40419;47.438;19.026;2023-05-03T02:15:26;100126.72;;;13.09;100.00
54512;BME280;40419;47.438;19.026;2023-05-03T02:17:54;100122.53;;;13.14;100.00
54512;BME280;40419;47.438;19.026;2023-05-03T02:20:20;100122.53;;;13.14;100.00
54512;BME280;40419;47.438;19.026;2023-05-03T02:22:50;100129.03;;;13.12;100.00
54512;BME280;40419;47.438;19.026;2023-05-03T02:25:18;100119.81;;;13.14;100.00
54512;BME280;40419;47.438;19.026;2023-05-03T02:27:43;100122.13;;;13.10;100.00
54512;BME280;40419;47.438;19.026;2023-05-03T02:30:09;100132.00;;;12.91;100.00
54512;BME280;40419;47.438;19.026;2023-05-03T02:32:41;100125.47;;;13.05;100.00
54512;BME280;40419;47.438;19.026;2023-05-03T02:35:07;100116.06;;;13.08;100.00
54512;BME280;40419;47.438;19.026;2023-05-03T02:37:37;100106.88;;;13.02;100.00
54512;BME280;40419;47.438;19.026;2023-05-03T02:40:07;100106.88;;;13.02;100.00
54512;BME280;40419;47.438;19.026;2023-05-03T02:42:36;100101.88;;;13.06;100.00
54512;BME280;40419;47.438;19.026;2023-05-03T02:45:04;100107.91;;;13.08;100.00
54512;BME280;40419;47.438;19.026;2023-05-03T02:47:32;100097.88;;;13.08;100.00
54512;BME280;40419;47.438;19.026;2023-05-03T02:50:00;100098.28;;;13.12;100.00
54512;BME280;40419;47.438;19.026;2023-05-03T02:52:35;100103.31;;;13.08;100.00
54512;BME280;40419;47.438;19.026;2023-05-03T02:55:00;100096.44;;;12.99;100.00
54512;BME280;40419;47.438;19.026;2023-05-03T02:57:32;100097.47;;;13.05;100.00
54512;BME280;40419;47.438;19.026;2023-05-03T03:00:01;100096.56;;;13.18;100.00
54512;BME280;40419;47.438;19.026;2023-05-03T03:02:32;100097.44;;;13.11;100.00
54512;BME280;40419;47.438;19.026;2023-05-03T03:04:57;100101.66;;;13.07;100.00
54512;BME280;40419;47.438;19.026;2023-05-03T03:07:25;100098.72;;;13.02;100.00
54512;BME280;40419;47.438;19.026;2023-05-03T03:09:54;100098.72;;;13.02;100.00
54512;BME280;40419;47.438;19.026;2023-05-03T03:12:20;100105.44;;;12.93;100.00
54512;BME280;40419;47.438;19.026;2023-05-03T03:14:53;100099.16;;;13.06;100.00
54512;BME280;40419;47.438;19.026;2023-05-03T03:17:22;100094.13;;;13.09;100.00
54512;BME280;40419;47.438;19.026;2023-05-03T03:19:48;100100.84;;;13.00;100.00
54512;BME280;40419;47.438;19.026;2023-05-03T03:22:16;100104.97;;;13.03;100.00
54512;BME280;40419;47.438;19.026;2023-05-03T03:24:45;100102.91;;;13.05;100.00
54512;BME280;40419;47.438;19.026;2023-05-03T03:27:11;100103.34;;;13.02;100.00
54512;BME280;40419;47.438;19.026;2023-05-03T03:29:37;100102.47;;;13.01;100.00
54512;BME280;40419;47.438;19.026;2023-05-03T03:32:06;100101.91;;;12.92;100.00
54512;BME280;40419;47.438;19.026;2023-05-03T03:34:34;100111.31;;;12.90;100.00
54512;BME280;40419;47.438;19.026;2023-05-03T03:37:03;100107.13;;;12.94;100.00
54512;BME280;40419;47.438;19.026;2023-05-03T03:39:32;100097.91;;;12.95;100.00
54512;BME280;40419;47.438;19.026;2023-05-03T03:42:01;100099.56;;;12.96;100.00
54512;BME280;40419;47.438;19.026;2023-05-03T03:44:30;100105.00;;;12.96;100.00
54512;BME280;40419;47.438;19.026;2023-05-03T03:47:03;100111.09;;;12.91;100.00
54512;BME280;40419;47.438;19.026;2023-05-03T03:49:32;100116.91;;;12.95;100.00
54512;BME280;40419;47.438;19.026;2023-05-03T03:52:00;100129.91;;;12.93;100.00
54512;BME280;40419;47.438;19.026;2023-05-03T03:54:28;100132.00;;;12.77;100.00
54512;BME280;40419;47.438;19.026;2023-05-03T03:56:56;100120.91;;;12.99;100.00
54512;BME280;40419;47.438;19.026;2023-05-03T03:59:26;100129.28;;;12.91;100.00
54512;BME280;40419;47.438;19.026;2023-05-03T04:01:57;100132.63;;;12.80;100.00
54512;BME280;40419;47.438;19.026;2023-05-03T04:04:23;100125.72;;;12.84;100.00
54512;BME280;40419;47.438;19.026;2023-05-03T04:06:52;100132.19;;;12.96;100.00
54512;BME280;40419;47.438;19.026;2023-05-03T04:09:21;100125.53;;;12.85;100.00
54512;BME280;40419;47.438;19.026;2023-05-03T04:11:49;100132.19;;;12.96;100.00
54512;BME280;40419;47.438;19.026;2023-05-03T04:14:19;100136.38;;;12.99;100.00
54512;BME280;40419;47.438;19.026;2023-05-03T04:16:51;100130.09;;;13.05;100.00
54512;BME280;40419;47.438;19.026;2023-05-03T04:19:17;100131.38;;;12.96;100.00
54512;BME280;40419;47.438;19.026;2023-05-03T04:21:45;100131.16;;;12.97;100.00
54512;BME280;40419;47.438;19.026;2023-05-03T04:24:14;100130.50;;;13.08;100.00
54512;BME280;40419;47.438;19.026;2023-05-03T04:26:44;100129.22;;;13.11;100.00
54512;BME280;40419;47.438;19.026;2023-05-03T04:29:23;100135.31;;;13.06;100.00
54512;BME280;40419;47.438;19.026;2023-05-03T04:31:52;100136.78;;;13.09;100.00
54512;BME280;40419;47.438;19.026;2023-05-03T04:34:21;100144.91;;;13.16;100.00
54512;BME280;40419;47.438;19.026;2023-05-03T04:36:50;100147.22;;;13.12;100.00
54512;BME280;40419;47.438;19.026;2023-05-03T04:39:18;100152.44;;;13.14;100.00
54512;BME280;40419;47.438;19.026;2023-05-03T04:41:47;100145.53;;;13.18;100.00
54512;BME280;40419;47.438;19.026;2023-05-03T04:44:15;100150.75;;;13.19;100.00
54512;BME280;40419;47.438;19.026;2023-05-03T04:46:44;100151.38;;;13.21;100.00
54512;BME280;40419;47.438;19.026;2023-05-03T04:49:12;100153.63;;;13.31;100.00
54512;BME280;40419;47.438;19.026;2023-05-03T04:51:42;100155.31;;;13.25;100.00
54512;BME280;40419;47.438;19.026;2023-05-03T04:54:10;100159.72;;;13.33;100.00
54512;BME280;40419;47.438;19.026;2023-05-03T04:56:38;100160.97;;;13.37;100.00
54512;BME280;40419;47.438;19.026;2023-05-03T04:59:12;100166.41;;;13.30;100.00
54512;BME280;40419;47.438;19.026;2023-05-03T05:01:43;100167.63;;;13.48;100.00
54512;BME280;40419;47.438;19.026;2023-05-03T05:04:12;100171.41;;;13.47;100.00
54512;BME280;40419;47.438;19.026;2023-05-03T05:06:42;100174.56;;;13.44;100.00
54512;BME280;40419;47.438;19.026;2023-05-03T05:09:28;100171.63;;;13.45;100.00
54512;BME280;40419;47.438;19.026;2023-05-03T05:12:02;100171.81;;;13.51;100.00
54512;BME280;40419;47.438;19.026;2023-05-03T05:14:33;100170.94;;;13.57;100.00
54512;BME280;40419;47.438;19.026;2023-05-03T05:17:02;100167.16;;;13.64;100.00
54512;BME280;40419;47.438;19.026;2023-05-03T05:19:30;100174.22;;;13.72;100.00
54512;BME280;40419;47.438;19.026;2023-05-03T05:21:56;100168.28;;;13.89;100.00
54512;BME280;40419;47.438;19.026;2023-05-03T05:24:27;100175.41;;;13.90;100.00
54512;BME280;40419;47.438;19.026;2023-05-03T05:26:59;100174.91;;;14.06;100.00
54512;BME280;40419;47.438;19.026;2023-05-03T05:29:26;100177.81;;;14.11;100.00
54512;BME280;40419;47.438;19.026;2023-05-03T05:31:54;100176.31;;;14.15;100.00
54512;BME280;40419;47.438;19.026;2023-05-03T05:34:20;100177.03;;;14.36;100.00
54512;BME280;40419;47.438;19.026;2023-05-03T05:36:48;100173.81;;;14.46;100.00
54512;BME280;40419;47.438;19.026;2023-05-03T05:39:18;100177.72;;;14.63;100.00
54512;BME280;40419;47.438;19.026;2023-05-03T05:41:46;100180.34;;;14.77;100.00
54512;BME280;40419;47.438;19.026;2023-05-03T05:44:14;100179.00;;;14.86;100.00
54512;BME280;40419;47.438;19.026;2023-05-03T05:46:44;100176.75;;;14.76;100.00
54512;BME280;40419;47.438;19.026;2023-05-03T05:49:13;100191.66;;;14.42;100.00
54512;BME280;40419;47.438;19.026;2023-05-03T05:51:39;100203.13;;;14.50;100.00
54512;BME280;40419;47.438;19.026;2023-05-03T05:54:06;100201.84;;;14.53;100.00
54512;BME280;40419;47.438;19.026;2023-05-03T05:56:39;100207.38;;;14.40;100.00
54512;BME280;40419;47.438;19.026;2023-05-03T05:59:07;100207.16;;;14.41;100.00
54512;BME280;40419;47.438;19.026;2023-05-03T06:01:34;100217.03;;;14.42;100.00
54512;BME280;40419;47.438;19.026;2023-05-03T06:04:02;100226.03;;;14.43;100.00
54512;BME280;40419;47.438;19.026;2023-05-03T06:06:30;100216.66;;;14.32;100.00
54512;BME280;40419;47.438;19.026;2023-05-03T06:08:59;100223.78;;;14.33;100.00
54512;BME280;40419;47.438;19.026;2023-05-03T06:11:25;100227.47;;;14.45;100.00
54512;BME280;40419;47.438;19.026;2023-05-03T06:13:56;100229.47;;;14.57;100.00
54512;BME280;40419;47.438;19.026;2023-05-03T06:16:22;100234.94;;;14.57;100.00
54512;BME280;40419;47.438;19.026;2023-05-03T06:18:49;100229.94;;;14.53;100.00
54512;BME280;40419;47.438;19.026;2023-05-03T06:21:15;100240.75;;;14.74;100.00
54512;BME280;40419;47.438;19.026;2023-05-03T06:23:43;100227.19;;;14.85;100.00
54512;BME280;40419;47.438;19.026;2023-05-03T06:26:09;100237.22;;;14.66;100.00
54512;BME280;40419;47.438;19.026;2023-05-03T06:28:39;100254.88;;;14.89;100.00
54512;BME280;40419;47.438;19.026;2023-05-03T06:31:07;100241.50;;;15.31;100.00
54512;BME280;40419;47.438;19.026;2023-05-03T06:33:33;100242.31;;;15.32;100.00
54512;BME280;40419;47.438;19.026;2023-05-03T06:36:01;100253.81;;;15.59;100.00
54512;BME280;40419;47.438;19.026;2023-05-03T06:38:27;100258.53;;;15.89;100.00
54512;BME280;40419;47.438;19.026;2023-05-03T06:40:55;100259.00;;;15.86;100.00
54512;BME280;40419;47.438;19.026;2023-05-03T06:43:25;100253.16;;;16.01;100.00
54512;BME280;40419;47.438;19.026;2023-05-03T06:45:54;100268.19;;;15.91;100.00
54512;BME280;40419;47.438;19.026;2023-05-03T06:48:19;100260.50;;;16.00;100.00
54512;BME280;40419;47.438;19.026;2023-05-03T06:50:47;100259.56;;;16.25;100.00
54512;BME280;40419;47.438;19.026;2023-05-03T06:53:13;100253.00;;;16.44;100.00
54512;BME280;40419;47.438;19.026;2023-05-03T06:55:47;100255.63;;;16.51;100.00
54512;BME280;40419;47.438;19.026;2023-05-03T06:58:12;100257.13;;;16.35;100.00
54512;BME280;40419;47.438;19.026;2023-05-03T07:00:43;100246.44;;;16.15;100.00
54512;BME280;40419;47.438;19.026;2023-05-03T07:03:08;100253.22;;;16.43;100.00
54512;BME280;40419;47.438;19.026;2023-05-03T07:05:36;100250.19;;;16.63;100.00
54512;BME280;40419;47.438;19.026;2023-05-03T07:08:02;100254.03;;;16.74;100.00
54512;BME280;40419;47.438;19.026;2023-05-03T07:10:30;100249.84;;;16.59;100.00
54512;BME280;40419;47.438;19.026;2023-05-03T07:13:03;100247.31;;;16.88;100.00
54512;BME280;40419;47.438;19.026;2023-05-03T07:15:30;100251.00;;;17.06;100.00
54512;BME280;40419;47.438;19.026;2023-05-03T07:17:58;100241.91;;;16.81;100.00
54512;BME280;40419;47.438;19.026;2023-05-03T07:20:23;100236.44;;;16.81;100.00
54512;BME280;40419;47.438;19.026;2023-05-03T07:22:52;100243.16;;;16.97;100.00
54512;BME280;40419;47.438;19.026;2023-05-03T07:25:18;100251.91;;;16.76;100.00
54512;BME280;40419;47.438;19.026;2023-05-03T07:27:43;100244.13;;;17.03;100.00
54512;BME280;40419;47.438;19.026;2023-05-03T07:30:19;100251.63;;;16.96;100.00
54512;BME280;40419;47.438;19.026;2023-05-03T07:32:46;100251.03;;;17.17;100.00
54512;BME280;40419;47.438;19.026;2023-05-03T07:35:14;100240.53;;;17.03;100.00
54512;BME280;40419;47.438;19.026;2023-05-03T07:37:43;100250.69;;;17.14;100.00
54512;BME280;40419;47.438;19.026;2023-05-03T07:40:09;100253.28;;;17.09;100.00
54512;BME280;40419;47.438;19.026;2023-05-03T07:42:38;100254.84;;;17.05;100.00
54512;BME280;40419;47.438;19.026;2023-05-03T07:45:09;100256.75;;;17.16;100.00
54512;BME280;40419;47.438;19.026;2023-05-03T07:47:40;100252.13;;;16.86;100.00
54512;BME280;40419;47.438;19.026;2023-05-03T07:50:06;100250.16;;;16.93;100.00
54512;BME280;40419;47.438;19.026;2023-05-03T07:52:39;100251.50;;;17.14;100.00
54512;BME280;40419;47.438;19.026;2023-05-03T07:55:11;100252.94;;;17.41;100.00
54512;BME280;40419;47.438;19.026;2023-05-03T07:57:37;100256.13;;;17.49;100.00
54512;BME280;40419;47.438;19.026;2023-05-03T08:00:02;100266.13;;;17.08;100.00
54512;BME280;40419;47.438;19.026;2023-05-03T08:02:40;100262.72;;;17.36;100.00
54512;BME280;40419;47.438;19.026;2023-05-03T08:05:06;100253.78;;;17.41;100.00
54512;BME280;40419;47.438;19.026;2023-05-03T08:07:32;100274.47;;;17.37;100.00
54512;BME280;40419;47.438;19.026;2023-05-03T08:10:00;100268.41;;;17.35;98.63
54512;BME280;40419;47.438;19.026;2023-05-03T08:12:26;100262.56;;;17.43;100.00
54512;BME280;40419;47.438;19.026;2023-05-03T08:14:53;100259.25;;;17.41;100.00
54512;BME280;40419;47.438;19.026;2023-05-03T08:17:22;100269.34;;;17.76;100.00
54512;BME280;40419;47.438;19.026;2023-05-03T08:19:50;100268.75;;;17.74;100.00
54512;BME280;40419;47.438;19.026;2023-05-03T08:22:21;100264.91;;;17.99;100.00
54512;BME280;40419;47.438;19.026;2023-05-03T08:24:49;100262.59;;;18.19;100.00
54512;BME280;40419;47.438;19.026;2023-05-03T08:27:14;100272.66;;;17.90;100.00
54512;BME280;40419;47.438;19.026;2023-05-03T08:29:40;100263.72;;;17.95;100.00
54512;BME280;40419;47.438;19.026;2023-05-03T08:32:05;100278.47;;;18.05;100.00
54512;BME280;40419;47.438;19.026;2023-05-03T08:34:31;100262.75;;;18.01;100.00
54512;BME280;40419;47.438;19.026;2023-05-03T08:36:57;100265.91;;;18.21;100.00
54512;BME280;40419;47.438;19.026;2023-05-03T08:39:23;100270.41;;;18.28;98.20
54512;BME280;40419;47.438;19.026;2023-05-03T08:41:54;100271.50;;;18.27;100.00
54512;BME280;40419;47.438;19.026;2023-05-03T08:44:26;100279.78;;;18.44;100.00
54512;BME280;40419;47.438;19.026;2023-05-03T08:46:53;100281.97;;;17.89;97.58
54512;BME280;40419;47.438;19.026;2023-05-03T08:49:24;100277.56;;;17.76;99.23
54512;BME280;40419;47.438;19.026;2023-05-03T08:51:54;100285.19;;;17.62;98.14
54512;BME280;40419;47.438;19.026;2023-05-03T08:54:19;100284.56;;;18.08;99.23
54512;BME280;40419;47.438;19.026;2023-05-03T08:56:51;100285.41;;;17.96;100.00
54512;BME280;40419;47.438;19.026;2023-05-03T08:59:18;100282.56;;;17.56;100.00
54512;BME280;40419;47.438;19.026;2023-05-03T09:01:48;100285.41;;;17.13;100.00
54512;BME280;40419;47.438;19.026;2023-05-03T09:04:14;100285.53;;;17.78;100.00
54512;BME280;40419;47.438;19.026;2023-05-03T09:06:43;100284.34;;;17.74;99.38
54512;BME280;40419;47.438;19.026;2023-05-03T09:09:13;100282.81;;;17.89;99.70
54512;BME280;40419;47.438;19.026;2023-05-03T09:11:40;100279.34;;;17.70;95.26
54512;BME280;40419;47.438;19.026;2023-05-03T09:14:08;100278.50;;;17.82;98.69
54512;BME280;40419;47.438;19.026;2023-05-03T09:16:40;100275.75;;;17.82;96.54
54512;BME280;40419;47.438;19.026;2023-05-03T09:19:12;100273.31;;;18.50;98.30
54512;BME280;40419;47.438;19.026;2023-05-03T09:21:42;100274.59;;;18.30;97.33
54512;BME280;40419;47.438;19.026;2023-05-03T09:24:19;100279.59;;;18.79;96.67
54512;BME280;40419;47.438;19.026;2023-05-03T09:26:50;100273.28;;;18.78;99.06
54512;BME280;40419;47.438;19.026;2023-05-03T09:29:30;100277.72;;;18.51;92.52
54512;BME280;40419;47.438;19.026;2023-05-03T09:32:04;100273.84;;;18.64;99.14
54512;BME280;40419;47.438;19.026;2023-05-03T09:34:31;100280.31;;;18.29;93.85
54512;BME280;40419;47.438;19.026;2023-05-03T09:37:02;100274.03;;;18.74;92.10
54512;BME280;40419;47.438;19.026;2023-05-03T09:39:27;100273.00;;;18.92;94.20
54512;BME280;40419;47.438;19.026;2023-05-03T09:41:55;100265.88;;;18.79;90.47
54512;BME280;40419;47.438;19.026;2023-05-03T09:44:40;100281.75;;;18.60;93.96
54512;BME280;40419;47.438;19.026;2023-05-03T09:47:11;100264.34;;;18.54;96.49
54512;BME280;40419;47.438;19.026;2023-05-03T09:49:37;100261.19;;;18.91;94.41
54512;BME280;40419;47.438;19.026;2023-05-03T09:52:04;100265.88;;;19.25;90.22
54512;BME280;40419;47.438;19.026;2023-05-03T09:54:30;100276.19;;;19.18;94.22
54512;BME280;40419;47.438;19.026;2023-05-03T09:56:56;100277.13;;;18.49;94.90
54512;BME280;40419;47.438;19.026;2023-05-03T09:59:24;100278.19;;;18.76;93.36
54512;BME280;40419;47.438;19.026;2023-05-03T10:01:55;100279.25;;;18.58;96.37
54512;BME280;40419;47.438;19.026;2023-05-03T10:04:24;100274.72;;;18.52;95.76
54512;BME280;40419;47.438;19.026;2023-05-03T10:06:59;100272.22;;;18.80;93.57
54512;BME280;40419;47.438;19.026;2023-05-03T10:09:41;100265.59;;;18.47;93.43
54512;BME280;40419;47.438;19.026;2023-05-03T10:12:11;100263.16;;;18.79;96.11
54512;BME280;40419;47.438;19.026;2023-05-03T10:14:41;100262.56;;;18.77;94.75
54512;BME280;40419;47.438;19.026;2023-05-03T10:17:14;100263.50;;;18.83;95.04
54512;BME280;40419;47.438;19.026;2023-05-03T10:22:18;100271.72;;;18.54;90.84
54512;BME280;40419;47.438;19.026;2023-05-03T10:32:58;100259.72;;;18.72;92.82
54512;BME280;40419;47.438;19.026;2023-05-03T10:35:28;100260.34;;;18.45;93.95
54512;BME280;40419;47.438;19.026;2023-05-03T10:38:14;100257.75;;;18.38;93.47
54512;BME280;40419;47.438;19.026;2023-05-03T10:40:43;100255.25;;;18.37;96.88
54512;BME280;40419;47.438;19.026;2023-05-03T10:46:04;100257.53;;;18.28;96.52
54512;BME280;40419;47.438;19.026;2023-05-03T10:48:33;100260.53;;;18.27;94.94
54512;BME280;40419;47.438;19.026;2023-05-03T10:53:53;100261.78;;;18.07;95.87
54512;BME280;40419;47.438;19.026;2023-05-03T10:56:18;100253.59;;;18.36;94.80
54512;BME280;40419;47.438;19.026;2023-05-03T10:58:46;100250.88;;;18.36;96.04
54512;BME280;40419;47.438;19.026;2023-05-03T11:01:15;100245.78;;;18.16;95.31
54512;BME280;40419;47.438;19.026;2023-05-03T11:06:37;100248.25;;;18.29;98.46
54512;BME280;40419;47.438;19.026;2023-05-03T11:09:06;100249.03;;;18.13;92.12
54512;BME280;40419;47.438;19.026;2023-05-03T11:11:37;100249.75;;;18.08;95.28
54512;BME280;40419;47.438;19.026;2023-05-03T11:14:05;100252.50;;;18.08;96.90
54512;BME280;40419;47.438;19.026;2023-05-03T11:16:34;100254.19;;;17.97;93.46
54512;BME280;40419;47.438;19.026;2023-05-03T11:19:01;100246.56;;;18.28;90.63
54512;BME280;40419;47.438;19.026;2023-05-03T11:21:27;100253.25;;;18.32;91.45
54512;BME280;40419;47.438;19.026;2023-05-03T11:23:53;100250.00;;;18.06;93.68
54512;BME280;40419;47.438;19.026;2023-05-03T11:26:18;100253.97;;;17.99;96.69
54512;BME280;40419;47.438;19.026;2023-05-03T11:28:55;100252.13;;;18.16;97.65
54512;BME280;40419;47.438;19.026;2023-05-03T11:31:21;100254.50;;;18.13;94.70
54512;BME280;40419;47.438;19.026;2023-05-03T11:33:51;100251.78;;;18.01;96.32
54512;BME280;40419;47.438;19.026;2023-05-03T11:36:18;100251.69;;;18.08;96.31
54512;BME280;40419;47.438;19.026;2023-05-03T11:38:49;100243.06;;;18.16;94.01
54512;BME280;40419;47.438;19.026;2023-05-03T11:41:15;100241.16;;;18.16;93.43
54512;BME280;40419;47.438;19.026;2023-05-03T11:43:47;100242.41;;;17.85;93.36
54512;BME280;40419;47.438;19.026;2023-05-03T11:46:22;100251.84;;;17.65;95.42
54512;BME280;40419;47.438;19.026;2023-05-03T11:48:56;100252.50;;;17.84;97.08
54512;BME280;40419;47.438;19.026;2023-05-03T11:51:22;100241.78;;;18.06;92.74
54512;BME280;40419;47.438;19.026;2023-05-03T11:53:51;100252.88;;;17.88;93.69
54512;BME280;40419;47.438;19.026;2023-05-03T11:56:17;100243.38;;;17.79;96.61
54512;BME280;40419;47.438;19.026;2023-05-03T11:58:54;100246.47;;;17.70;95.08
54512;BME280;40419;47.438;19.026;2023-05-03T12:01:26;100238.97;;;17.89;96.75
54512;BME280;40419;47.438;19.026;2023-05-03T12:03:59;100247.19;;;17.78;95.26
54512;BME280;40419;47.438;19.026;2023-05-03T12:06:30;100249.94;;;17.89;95.11
54512;BME280;40419;47.438;19.026;2023-05-03T12:08:57;100248.38;;;17.94;93.08
54512;BME280;40419;47.438;19.026;2023-05-03T12:11:28;100250.03;;;17.83;94.24
54512;BME280;40419;47.438;19.026;2023-05-03T12:14:02;100238.72;;;17.91;95.54
54512;BME280;40419;47.438;19.026;2023-05-03T12:16:46;100240.50;;;17.85;92.78
54512;BME280;40419;47.438;19.026;2023-05-03T12:19:26;100245.72;;;17.87;95.13
54512;BME280;40419;47.438;19.026;2023-05-03T12:21:54;100239.19;;;18.00;95.38
54512;BME280;40419;47.438;19.026;2023-05-03T12:24:21;100235.81;;;18.10;94.21
54512;BME280;40419;47.438;19.026;2023-05-03T12:26:50;100224.03;;;18.09;93.84
54512;BME280;40419;47.438;19.026;2023-05-03T12:29:21;100222.00;;;18.16;92.09
54512;BME280;40419;47.438;19.026;2023-05-03T12:31:53;100224.59;;;18.11;94.74
54512;BME280;40419;47.438;19.026;2023-05-03T12:34:18;100220.13;;;17.93;96.02
54512;BME280;40419;47.438;19.026;2023-05-03T12:36:44;100222.47;;;18.13;93.76
54512;BME280;40419;47.438;19.026;2023-05-03T12:39:10;100229.63;;;18.02;94.52
54512;BME280;40419;47.438;19.026;2023-05-03T12:41:38;100222.41;;;18.25;93.22
54512;BME280;40419;47.438;19.026;2023-05-03T12:44:06;100223.47;;;17.83;93.03
54512;BME280;40419;47.438;19.026;2023-05-03T12:46:34;100227.09;;;18.13;92.71
54512;BME280;40419;47.438;19.026;2023-05-03T12:49:01;100218.09;;;18.00;92.60
54512;BME280;40419;47.438;19.026;2023-05-03T12:51:31;100217.59;;;18.03;92.10
54512;BME280;40419;47.438;19.026;2023-05-03T12:53:59;100200.84;;;17.88;93.25
54512;BME280;40419;47.438;19.026;2023-05-03T12:56:24;100203.72;;;17.93;93.90
54512;BME280;40419;47.438;19.026;2023-05-03T12:58:50;100214.78;;;17.86;96.28
54512;BME280;40419;47.438;19.026;2023-05-03T13:01:22;100215.63;;;17.75;94.54
54512;BME280;40419;47.438;19.026;2023-05-03T13:03:50;100213.63;;;17.70;96.13
54512;BME280;40419;47.438;19.026;2023-05-03T13:06:16;100201.56;;;17.83;96.12
54512;BME280;40419;47.438;19.026;2023-05-03T13:08:43;100208.13;;;17.70;95.85
54512;BME280;40419;47.438;19.026;2023-05-03T13:11:13;100210.06;;;17.58;95.88
54512;BME280;40419;47.438;19.026;2023-05-03T13:13:39;100202.41;;;17.84;95.81
54512;BME280;40419;47.438;19.026;2023-05-03T13:16:05;100211.56;;;18.01;96.62
54512;BME280;40419;47.438;19.026;2023-05-03T13:18:32;100197.63;;;18.03;98.26